Flight NumberPSR9999 Date27.07.2020
Departure AirportSVMG Arrival AirportMMMX
Departure Time15.01Arrival Time20.09
Pilot In CommandJason Ballard Block Time5.10 Hours
Pilot Rating100 % AircraftHA-LOB [ 737-700C ]


Distance2,096.00 Nm. Passengers0
Fuel Used11,742 Kg. Cargo354 Kg
Expense Details Income Details
Fuel Cost9,142 v$Ticket Sales0 v$
Pilot Salary17,036 v$ Cargo income1,107.00 v$
Crew Salary0 v$ Bonus28,393 v$
Gross Profit153,326 v$ ( 3,833,150 v$ )

Client Versionv2.3.3 Max Simrate1
Flight Critique Pilot CommentsPMDG B737, Visual 5R, MMMX 271952Z 06006KT 10SM SCT020 BKN200 24/09 A3026.

[ Back ]
FSA VA Integration Pack
Copyright © 2010 FSAirlines.net. Version : 0.1.1